sensor_id;sensor_type;location;lat;lon;timestamp;pressure;altitude;pressure_sealevel;temperature;humidity
36380;BME280;22411;53.016;18.632;2023-08-20T00:00:28;100931.09;;;22.87;100.00
36380;BME280;22411;53.016;18.632;2023-08-20T00:03:14;100939.03;;;22.87;100.00
36380;BME280;22411;53.016;18.632;2023-08-20T00:05:40;100932.91;;;22.87;100.00
36380;BME280;22411;53.016;18.632;2023-08-20T00:08:06;100927.19;;;22.83;100.00
36380;BME280;22411;53.016;18.632;2023-08-20T00:10:32;100927.53;;;22.80;100.00
36380;BME280;22411;53.016;18.632;2023-08-20T00:12:58;100927.53;;;22.80;100.00
36380;BME280;22411;53.016;18.632;2023-08-20T00:15:24;100930.78;;;22.82;100.00
36380;BME280;22411;53.016;18.632;2023-08-20T00:17:54;100936.75;;;22.84;100.00
36380;BME280;22411;53.016;18.632;2023-08-20T00:20:21;100932.47;;;22.83;100.00
36380;BME280;22411;53.016;18.632;2023-08-20T00:22:47;100929.69;;;22.77;100.00
36380;BME280;22411;53.016;18.632;2023-08-20T00:25:15;100928.22;;;22.74;100.00
36380;BME280;22411;53.016;18.632;2023-08-20T00:27:41;100925.09;;;22.70;100.00
36380;BME280;22411;53.016;18.632;2023-08-20T00:30:08;100929.22;;;22.73;100.00
36380;BME280;22411;53.016;18.632;2023-08-20T00:32:35;100923.09;;;22.73;100.00
36380;BME280;22411;53.016;18.632;2023-08-20T00:35:01;100930.03;;;22.74;100.00
36380;BME280;22411;53.016;18.632;2023-08-20T00:37:28;100924.09;;;22.71;100.00
36380;BME280;22411;53.016;18.632;2023-08-20T00:39:54;100923.09;;;22.73;100.00
36380;BME280;22411;53.016;18.632;2023-08-20T00:42:20;100925.56;;;22.74;100.00
36380;BME280;22411;53.016;18.632;2023-08-20T00:44:46;100927.41;;;22.74;100.00
36380;BME280;22411;53.016;18.632;2023-08-20T00:47:13;100921.94;;;22.75;100.00
36380;BME280;22411;53.016;18.632;2023-08-20T00:49:40;100924.75;;;22.74;100.00
36380;BME280;22411;53.016;18.632;2023-08-20T00:52:08;100926.56;;;22.73;100.00
36380;BME280;22411;53.016;18.632;2023-08-20T00:54:35;100923.28;;;22.71;100.00
36380;BME280;22411;53.016;18.632;2023-08-20T00:57:01;100918.34;;;22.68;100.00
36380;BME280;22411;53.016;18.632;2023-08-20T00:59:31;100924.28;;;22.70;100.00
36380;BME280;22411;53.016;18.632;2023-08-20T01:01:57;100924.09;;;22.71;100.00
36380;BME280;22411;53.016;18.632;2023-08-20T01:04:23;100920.28;;;22.74;100.00
36380;BME280;22411;53.016;18.632;2023-08-20T01:09:40;100920.94;;;22.76;100.00
36380;BME280;22411;53.016;18.632;2023-08-20T01:12:09;100927.22;;;22.75;100.00
36380;BME280;22411;53.016;18.632;2023-08-20T01:14:35;100935.03;;;22.68;100.00
36380;BME280;22411;53.016;18.632;2023-08-20T01:17:01;100933.53;;;22.66;100.00
36380;BME280;22411;53.016;18.632;2023-08-20T01:19:27;100929.59;;;22.62;100.00
36380;BME280;22411;53.016;18.632;2023-08-20T01:22:05;100940.69;;;22.57;100.00
36380;BME280;22411;53.016;18.632;2023-08-20T01:24:44;100935.41;;;22.57;100.00
36380;BME280;22411;53.016;18.632;2023-08-20T01:29:49;100944.97;;;22.58;100.00
36380;BME280;22411;53.016;18.632;2023-08-20T01:32:15;100946.78;;;22.58;100.00
36380;BME280;22411;53.016;18.632;2023-08-20T01:34:42;100945.78;;;22.59;100.00
36380;BME280;22411;53.016;18.632;2023-08-20T01:37:08;100948.13;;;22.54;100.00
36380;BME280;22411;53.016;18.632;2023-08-20T01:39:33;100947.81;;;22.49;100.00
36380;BME280;22411;53.016;18.632;2023-08-20T01:41:59;100945.69;;;22.44;100.00
36380;BME280;22411;53.016;18.632;2023-08-20T01:44:25;100945.56;;;22.37;100.00
36380;BME280;22411;53.016;18.632;2023-08-20T01:46:50;100944.44;;;22.32;100.00
36380;BME280;22411;53.016;18.632;2023-08-20T01:49:16;100943.44;;;22.25;100.00
36380;BME280;22411;53.016;18.632;2023-08-20T01:51:42;100944.31;;;22.17;100.00
36380;BME280;22411;53.016;18.632;2023-08-20T01:54:07;100942.19;;;22.12;100.00
36380;BME280;22411;53.016;18.632;2023-08-20T01:56:33;100944.31;;;22.17;100.00
36380;BME280;22411;53.016;18.632;2023-08-20T01:58:59;100947.78;;;22.17;100.00
36380;BME280;22411;53.016;18.632;2023-08-20T02:01:24;100934.41;;;22.19;100.00
36380;BME280;22411;53.016;18.632;2023-08-20T02:03:50;100942.97;;;22.21;100.00
36380;BME280;22411;53.016;18.632;2023-08-20T02:06:16;100944.63;;;22.22;100.00
36380;BME280;22411;53.016;18.632;2023-08-20T02:08:42;100948.25;;;22.21;100.00
36380;BME280;22411;53.016;18.632;2023-08-20T02:11:07;100950.41;;;22.17;100.00
36380;BME280;22411;53.016;18.632;2023-08-20T02:13:33;100946.81;;;22.10;100.00
36380;BME280;22411;53.016;18.632;2023-08-20T02:16:03;100943.50;;;22.00;100.00
36380;BME280;22411;53.016;18.632;2023-08-20T02:18:30;100946.00;;;21.93;100.00
36380;BME280;22411;53.016;18.632;2023-08-20T02:20:56;100950.59;;;21.91;100.00
36380;BME280;22411;53.016;18.632;2023-08-20T02:23:22;100949.47;;;21.94;100.00
36380;BME280;22411;53.016;18.632;2023-08-20T02:25:48;100943.81;;;21.97;100.00
36380;BME280;22411;53.016;18.632;2023-08-20T02:28:14;100946.81;;;21.94;100.00
36380;BME280;22411;53.016;18.632;2023-08-20T02:30:44;100939.09;;;21.84;100.00
36380;BME280;22411;53.016;18.632;2023-08-20T02:33:10;100954.09;;;21.76;100.00
36380;BME280;22411;53.016;18.632;2023-08-20T02:35:37;100949.63;;;21.76;100.00
36380;BME280;22411;53.016;18.632;2023-08-20T02:38:03;100943.88;;;21.73;100.00
36380;BME280;22411;53.016;18.632;2023-08-20T02:40:28;100938.94;;;21.70;100.00
36380;BME280;22411;53.016;18.632;2023-08-20T02:42:54;100943.22;;;21.71;100.00
36380;BME280;22411;53.016;18.632;2023-08-20T02:45:20;100945.69;;;21.72;100.00
36380;BME280;22411;53.016;18.632;2023-08-20T02:47:46;100942.06;;;21.73;100.00
36380;BME280;22411;53.016;18.632;2023-08-20T02:50:11;100942.22;;;21.72;100.00
36380;BME280;22411;53.016;18.632;2023-08-20T02:52:37;100945.03;;;21.70;100.00
36380;BME280;22411;53.016;18.632;2023-08-20T02:55:03;100938.28;;;21.67;100.00
36380;BME280;22411;53.016;18.632;2023-08-20T02:57:30;100938.44;;;21.66;100.00
36380;BME280;22411;53.016;18.632;2023-08-20T02:59:56;100942.56;;;21.69;100.00
36380;BME280;22411;53.016;18.632;2023-08-20T03:02:22;100947.03;;;21.68;100.00
36380;BME280;22411;53.016;18.632;2023-08-20T03:04:48;100944.72;;;21.65;100.00
36380;BME280;22411;53.016;18.632;2023-08-20T03:07:13;100945.06;;;21.62;100.00
36380;BME280;22411;53.016;18.632;2023-08-20T03:09:39;100949.00;;;21.58;100.00
36380;BME280;22411;53.016;18.632;2023-08-20T03:12:05;100941.09;;;21.50;100.00
36380;BME280;22411;53.016;18.632;2023-08-20T03:14:31;100942.59;;;21.52;100.00
36380;BME280;22411;53.016;18.632;2023-08-20T03:16:57;100944.22;;;21.53;100.00
36380;BME280;22411;53.016;18.632;2023-08-20T03:19:22;100936.63;;;21.50;100.00
36380;BME280;22411;53.016;18.632;2023-08-20T03:21:48;100943.72;;;21.50;100.00
36380;BME280;22411;53.016;18.632;2023-08-20T03:24:13;100948.19;;;21.49;100.00
36380;BME280;22411;53.016;18.632;2023-08-20T03:26:39;100945.03;;;21.46;100.00
36380;BME280;22411;53.016;18.632;2023-08-20T03:29:05;100943.25;;;21.46;100.00
36380;BME280;22411;53.016;18.632;2023-08-20T03:31:31;100937.13;;;21.46;100.00
36380;BME280;22411;53.016;18.632;2023-08-20T03:33:57;100941.75;;;21.44;100.00
36380;BME280;22411;53.016;18.632;2023-08-20T03:36:23;100946.03;;;21.45;100.00
36380;BME280;22411;53.016;18.632;2023-08-20T03:38:48;100951.97;;;21.47;100.00
36380;BME280;22411;53.016;18.632;2023-08-20T03:41:14;100948.53;;;21.46;100.00
36380;BME280;22411;53.016;18.632;2023-08-20T03:43:39;100948.84;;;21.43;100.00
36380;BME280;22411;53.016;18.632;2023-08-20T03:46:05;100943.75;;;21.42;100.00
36380;BME280;22411;53.016;18.632;2023-08-20T03:48:31;100957.25;;;21.38;100.00
36380;BME280;22411;53.016;18.632;2023-08-20T03:50:56;100952.44;;;21.34;100.00
36380;BME280;22411;53.016;18.632;2023-08-20T03:53:22;100958.84;;;21.23;100.00
36380;BME280;22411;53.016;18.632;2023-08-20T03:55:49;100958.03;;;21.14;100.00
36380;BME280;22411;53.016;18.632;2023-08-20T03:58:14;100956.00;;;21.08;100.00
36380;BME280;22411;53.016;18.632;2023-08-20T04:00:40;100953.84;;;21.04;100.00
36380;BME280;22411;53.016;18.632;2023-08-20T04:03:06;100951.41;;;21.02;100.00
36380;BME280;22411;53.016;18.632;2023-08-20T04:05:38;100958.16;;;21.05;100.00
36380;BME280;22411;53.016;18.632;2023-08-20T04:08:05;100957.50;;;21.03;100.00
36380;BME280;22411;53.016;18.632;2023-08-20T04:10:31;100957.50;;;21.03;100.00
36380;BME280;22411;53.016;18.632;2023-08-20T04:12:58;100967.53;;;21.07;100.00
36380;BME280;22411;53.016;18.632;2023-08-20T04:15:24;100963.91;;;21.08;100.00
36380;BME280;22411;53.016;18.632;2023-08-20T04:17:49;100965.94;;;21.14;100.00
36380;BME280;22411;53.016;18.632;2023-08-20T04:20:15;100967.56;;;21.15;100.00
36380;BME280;22411;53.016;18.632;2023-08-20T04:22:41;100970.22;;;21.15;100.00
36380;BME280;22411;53.016;18.632;2023-08-20T04:25:07;100969.88;;;21.19;100.00
36380;BME280;22411;53.016;18.632;2023-08-20T04:27:33;100978.09;;;21.24;100.00
36380;BME280;22411;53.016;18.632;2023-08-20T04:29:59;100979.28;;;21.29;100.00
36380;BME280;22411;53.016;18.632;2023-08-20T04:32:25;100970.91;;;21.34;100.00
36380;BME280;22411;53.016;18.632;2023-08-20T04:34:50;100984.09;;;21.42;100.00
36380;BME280;22411;53.016;18.632;2023-08-20T04:37:19;100980.16;;;21.46;100.00
36380;BME280;22411;53.016;18.632;2023-08-20T04:39:45;100978.34;;;21.47;100.00
36380;BME280;22411;53.016;18.632;2023-08-20T04:42:10;100980.63;;;21.50;100.00
36380;BME280;22411;53.016;18.632;2023-08-20T04:44:36;100985.44;;;21.54;100.00
36380;BME280;22411;53.016;18.632;2023-08-20T04:47:02;100988.22;;;21.53;100.00
36380;BME280;22411;53.016;18.632;2023-08-20T04:49:27;100984.28;;;21.49;100.00
36380;BME280;22411;53.016;18.632;2023-08-20T04:51:55;100981.81;;;21.47;100.00
36380;BME280;22411;53.016;18.632;2023-08-20T04:54:21;100984.94;;;21.43;100.00
36380;BME280;22411;53.016;18.632;2023-08-20T04:56:46;100990.38;;;21.41;100.00
36380;BME280;22411;53.016;18.632;2023-08-20T04:59:12;100986.56;;;21.44;100.00
36380;BME280;22411;53.016;18.632;2023-08-20T05:01:38;100989.53;;;21.49;100.00
36380;BME280;22411;53.016;18.632;2023-08-20T05:04:05;100992.69;;;21.52;100.00
36380;BME280;22411;53.016;18.632;2023-08-20T05:06:31;100995.16;;;21.54;100.00
36380;BME280;22411;53.016;18.632;2023-08-20T05:08:57;100998.44;;;21.56;100.00
36380;BME280;22411;53.016;18.632;2023-08-20T05:11:22;100993.84;;;21.58;100.00
36380;BME280;22411;53.016;18.632;2023-08-20T05:13:49;100991.69;;;21.61;100.00
36380;BME280;22411;53.016;18.632;2023-08-20T05:16:15;101000.28;;;21.63;100.00
36380;BME280;22411;53.016;18.632;2023-08-20T05:18:41;101003.06;;;21.62;100.00
36380;BME280;22411;53.016;18.632;2023-08-20T05:21:07;101013.09;;;21.66;100.00
36380;BME280;22411;53.016;18.632;2023-08-20T05:23:33;101015.13;;;21.73;100.00
36380;BME280;22411;53.016;18.632;2023-08-20T05:25:59;101010.16;;;21.78;100.00
36380;BME280;22411;53.016;18.632;2023-08-20T05:28:24;101012.13;;;21.84;100.00
36380;BME280;22411;53.016;18.632;2023-08-20T05:30:56;101007.34;;;21.96;100.00
36380;BME280;22411;53.016;18.632;2023-08-20T05:33:23;101006.47;;;22.03;100.00
36380;BME280;22411;53.016;18.632;2023-08-20T05:35:49;101009.31;;;22.10;100.00
36380;BME280;22411;53.016;18.632;2023-08-20T05:38:15;101004.38;;;22.15;100.00
36380;BME280;22411;53.016;18.632;2023-08-20T05:40:41;101010.63;;;22.22;100.00
36380;BME280;22411;53.016;18.632;2023-08-20T05:43:06;101013.91;;;22.32;100.00
36380;BME280;22411;53.016;18.632;2023-08-20T05:45:32;101010.06;;;22.43;100.00
36380;BME280;22411;53.016;18.632;2023-08-20T05:47:58;101010.88;;;22.52;100.00
36380;BME280;22411;53.016;18.632;2023-08-20T05:50:23;101015.94;;;22.61;100.00
36380;BME280;22411;53.016;18.632;2023-08-20T05:52:49;101014.28;;;22.60;100.00
36380;BME280;22411;53.016;18.632;2023-08-20T05:55:15;101012.00;;;22.57;100.00
36380;BME280;22411;53.016;18.632;2023-08-20T05:57:41;101018.44;;;22.55;100.00
36380;BME280;22411;53.016;18.632;2023-08-20T06:00:09;101020.25;;;22.54;100.00
36380;BME280;22411;53.016;18.632;2023-08-20T06:02:36;101027.69;;;22.59;100.00
36380;BME280;22411;53.016;18.632;2023-08-20T06:05:02;101025.00;;;22.67;100.00
36380;BME280;22411;53.016;18.632;2023-08-20T06:07:30;101027.28;;;22.78;100.00
36380;BME280;22411;53.016;18.632;2023-08-20T06:09:56;101019.31;;;22.86;100.00
36380;BME280;22411;53.016;18.632;2023-08-20T06:12:23;101019.47;;;22.93;100.00
36380;BME280;22411;53.016;18.632;2023-08-20T06:14:49;101025.22;;;22.96;100.00
36380;BME280;22411;53.016;18.632;2023-08-20T06:17:15;101028.81;;;23.04;100.00
36380;BME280;22411;53.016;18.632;2023-08-20T06:19:40;101032.59;;;23.09;100.00
36380;BME280;22411;53.016;18.632;2023-08-20T06:22:06;101032.56;;;23.17;100.00
36380;BME280;22411;53.016;18.632;2023-08-20T06:24:32;101034.31;;;23.25;100.00
36380;BME280;22411;53.016;18.632;2023-08-20T06:26:58;101031.09;;;23.38;100.00
36380;BME280;22411;53.016;18.632;2023-08-20T06:29:23;101039.22;;;23.59;100.00
36380;BME280;22411;53.016;18.632;2023-08-20T06:31:49;101045.41;;;23.74;100.00
36380;BME280;22411;53.016;18.632;2023-08-20T06:34:15;101048.09;;;23.89;100.00
36380;BME280;22411;53.016;18.632;2023-08-20T06:36:42;101040.63;;;23.93;100.00
36380;BME280;22411;53.016;18.632;2023-08-20T06:39:07;101039.00;;;24.07;100.00
36380;BME280;22411;53.016;18.632;2023-08-20T06:41:34;101049.91;;;24.26;100.00
36380;BME280;22411;53.016;18.632;2023-08-20T06:44:01;101041.84;;;24.35;100.00
36380;BME280;22411;53.016;18.632;2023-08-20T06:46:27;101044.09;;;24.46;100.00
36380;BME280;22411;53.016;18.632;2023-08-20T06:48:52;101044.81;;;24.55;100.00
36380;BME280;22411;53.016;18.632;2023-08-20T06:51:20;101045.28;;;24.58;100.00
36380;BME280;22411;53.016;18.632;2023-08-20T06:53:45;101049.94;;;24.71;100.00
36380;BME280;22411;53.016;18.632;2023-08-20T06:56:11;101054.41;;;24.85;100.00
36380;BME280;22411;53.016;18.632;2023-08-20T06:58:38;101064.97;;;25.15;100.00
36380;BME280;22411;53.016;18.632;2023-08-20T07:01:04;101055.13;;;25.30;100.00
36380;BME280;22411;53.016;18.632;2023-08-20T07:03:38;101067.34;;;25.46;100.00
36380;BME280;22411;53.016;18.632;2023-08-20T07:06:04;101070.97;;;25.60;100.00
36380;BME280;22411;53.016;18.632;2023-08-20T07:08:30;101060.84;;;25.70;100.00
36380;BME280;22411;53.016;18.632;2023-08-20T07:10:56;101064.66;;;25.82;100.00
36380;BME280;22411;53.016;18.632;2023-08-20T07:13:22;101069.44;;;25.93;100.00
36380;BME280;22411;53.016;18.632;2023-08-20T07:15:48;101065.06;;;26.07;100.00
36380;BME280;22411;53.016;18.632;2023-08-20T07:18:14;101071.69;;;26.18;100.00
36380;BME280;22411;53.016;18.632;2023-08-20T07:20:44;101077.47;;;26.28;100.00
36380;BME280;22411;53.016;18.632;2023-08-20T07:23:10;101082.72;;;26.43;100.00
36380;BME280;22411;53.016;18.632;2023-08-20T07:25:40;101081.34;;;26.53;100.00
36380;BME280;22411;53.016;18.632;2023-08-20T07:28:07;101086.53;;;26.68;100.00
36380;BME280;22411;53.016;18.632;2023-08-20T07:30:34;101085.56;;;26.82;100.00
36380;BME280;22411;53.016;18.632;2023-08-20T07:33:00;101083.38;;;26.99;100.00
36380;BME280;22411;53.016;18.632;2023-08-20T07:35:27;101084.50;;;27.12;100.00
36380;BME280;22411;53.016;18.632;2023-08-20T07:37:52;101079.19;;;27.18;100.00
36380;BME280;22411;53.016;18.632;2023-08-20T07:40:18;101080.03;;;27.25;100.00
36380;BME280;22411;53.016;18.632;2023-08-20T07:42:45;101084.97;;;27.35;100.00
36380;BME280;22411;53.016;18.632;2023-08-20T07:45:10;101081.06;;;27.31;100.00
36380;BME280;22411;53.016;18.632;2023-08-20T07:47:36;101079.03;;;27.40;100.00
36380;BME280;22411;53.016;18.632;2023-08-20T07:50:04;101089.72;;;27.53;100.00
36380;BME280;22411;53.016;18.632;2023-08-20T07:52:33;101085.88;;;27.69;100.00
36380;BME280;22411;53.016;18.632;2023-08-20T07:54:58;101087.34;;;27.84;100.00
36380;BME280;22411;53.016;18.632;2023-08-20T07:57:24;101083.44;;;28.00;100.00
36380;BME280;22411;53.016;18.632;2023-08-20T07:59:50;101077.06;;;28.14;100.00
36380;BME280;22411;53.016;18.632;2023-08-20T08:02:16;101062.28;;;28.25;100.00
36380;BME280;22411;53.016;18.632;2023-08-20T08:04:42;101074.00;;;28.37;100.00
36380;BME280;22411;53.016;18.632;2023-08-20T08:07:09;101069.47;;;28.45;100.00
36380;BME280;22411;53.016;18.632;2023-08-20T08:09:35;101064.94;;;28.58;100.00
36380;BME280;22411;53.016;18.632;2023-08-20T08:12:01;101065.13;;;28.63;100.00
36380;BME280;22411;53.016;18.632;2023-08-20T08:14:27;101067.53;;;28.72;100.00
36380;BME280;22411;53.016;18.632;2023-08-20T08:16:53;101059.50;;;28.85;100.00
36380;BME280;22411;53.016;18.632;2023-08-20T08:19:19;101062.34;;;28.97;100.00
36380;BME280;22411;53.016;18.632;2023-08-20T08:21:46;101065.75;;;29.10;100.00
36380;BME280;22411;53.016;18.632;2023-08-20T08:24:12;101071.63;;;29.26;100.00
36380;BME280;22411;53.016;18.632;2023-08-20T08:26:38;101073.13;;;29.47;100.00
36380;BME280;22411;53.016;18.632;2023-08-20T08:29:05;101076.50;;;29.67;100.00
36380;BME280;22411;53.016;18.632;2023-08-20T08:31:31;101069.16;;;29.87;100.00
36380;BME280;22411;53.016;18.632;2023-08-20T08:33:57;101072.97;;;29.98;100.00
36380;BME280;22411;53.016;18.632;2023-08-20T08:36:23;101075.50;;;30.18;100.00
36380;BME280;22411;53.016;18.632;2023-08-20T08:38:52;101070.78;;;30.38;100.00
36380;BME280;22411;53.016;18.632;2023-08-20T08:41:21;101060.28;;;30.55;100.00
36380;BME280;22411;53.016;18.632;2023-08-20T08:43:47;101060.75;;;30.70;100.00
36380;BME280;22411;53.016;18.632;2023-08-20T08:46:14;101067.78;;;31.02;100.00
36380;BME280;22411;53.016;18.632;2023-08-20T08:48:41;101069.44;;;31.33;100.00
36380;BME280;22411;53.016;18.632;2023-08-20T08:51:07;101076.72;;;31.56;100.00
36380;BME280;22411;53.016;18.632;2023-08-20T08:53:35;101079.44;;;31.37;99.52
36380;BME280;22411;53.016;18.632;2023-08-20T08:56:01;101076.06;;;31.42;100.00
36380;BME280;22411;53.016;18.632;2023-08-20T08:58:28;101082.97;;;31.49;98.87
36380;BME280;22411;53.016;18.632;2023-08-20T09:00:54;101077.75;;;31.55;98.02
36380;BME280;22411;53.016;18.632;2023-08-20T09:03:20;101073.91;;;31.62;95.86
36380;BME280;22411;53.016;18.632;2023-08-20T09:05:54;101071.72;;;31.59;95.55
36380;BME280;22411;53.016;18.632;2023-08-20T09:08:28;101078.69;;;31.60;96.25
36380;BME280;22411;53.016;18.632;2023-08-20T09:10:56;101074.53;;;31.64;89.88
36380;BME280;22411;53.016;18.632;2023-08-20T09:13:24;101085.53;;;31.44;90.78
36380;BME280;22411;53.016;18.632;2023-08-20T09:15:53;101077.00;;;31.36;91.92
36380;BME280;22411;53.016;18.632;2023-08-20T09:18:20;101081.56;;;31.17;93.19
36380;BME280;22411;53.016;18.632;2023-08-20T09:20:47;101078.38;;;31.08;96.37
36380;BME280;22411;53.016;18.632;2023-08-20T09:23:15;101086.50;;;31.02;95.76
36380;BME280;22411;53.016;18.632;2023-08-20T09:25:42;101082.69;;;31.09;97.89
36380;BME280;22411;53.016;18.632;2023-08-20T09:28:08;101080.16;;;31.14;100.00
36380;BME280;22411;53.016;18.632;2023-08-20T09:30:34;101075.38;;;30.86;100.00
36380;BME280;22411;53.016;18.632;2023-08-20T09:33:04;101078.88;;;30.50;100.00
36380;BME280;22411;53.016;18.632;2023-08-20T09:35:30;101076.38;;;30.12;100.00
36380;BME280;22411;53.016;18.632;2023-08-20T09:38:00;101075.31;;;29.88;100.00
36380;BME280;22411;53.016;18.632;2023-08-20T09:40:27;101071.19;;;29.92;100.00
36380;BME280;22411;53.016;18.632;2023-08-20T09:42:53;101074.09;;;30.34;100.00
36380;BME280;22411;53.016;18.632;2023-08-20T09:45:20;101081.41;;;30.82;100.00
36380;BME280;22411;53.016;18.632;2023-08-20T09:47:48;101078.06;;;31.46;100.00
36380;BME280;22411;53.016;18.632;2023-08-20T09:50:17;101080.63;;;31.95;90.85
36380;BME280;22411;53.016;18.632;2023-08-20T09:52:58;101085.19;;;32.06;87.78
36380;BME280;22411;53.016;18.632;2023-08-20T09:55:33;101095.19;;;32.11;86.34
36380;BME280;22411;53.016;18.632;2023-08-20T09:58:01;101089.38;;;32.14;88.10
36380;BME280;22411;53.016;18.632;2023-08-20T10:00:27;101081.13;;;32.39;85.34
36380;BME280;22411;53.016;18.632;2023-08-20T10:02:54;101083.97;;;32.61;78.47
36380;BME280;22411;53.016;18.632;2023-08-20T10:05:22;101083.00;;;31.73;81.06
36380;BME280;22411;53.016;18.632;2023-08-20T10:07:49;101080.53;;;32.01;83.12
36380;BME280;22411;53.016;18.632;2023-08-20T10:10:15;101081.56;;;32.12;82.87
36380;BME280;22411;53.016;18.632;2023-08-20T10:12:43;101084.00;;;32.37;80.61
36380;BME280;22411;53.016;18.632;2023-08-20T10:15:12;101081.44;;;32.07;75.26
36380;BME280;22411;53.016;18.632;2023-08-20T10:17:41;101078.28;;;32.10;76.18
36380;BME280;22411;53.016;18.632;2023-08-20T10:20:08;101085.28;;;32.35;74.75
36380;BME280;22411;53.016;18.632;2023-08-20T10:22:38;101078.81;;;32.71;76.25
36380;BME280;22411;53.016;18.632;2023-08-20T10:25:11;101069.91;;;32.82;76.55
36380;BME280;22411;53.016;18.632;2023-08-20T10:27:40;101069.91;;;32.82;71.44
36380;BME280;22411;53.016;18.632;2023-08-20T10:30:17;101078.53;;;32.84;65.39
36380;BME280;22411;53.016;18.632;2023-08-20T10:32:51;101089.84;;;32.98;61.96
36380;BME280;22411;53.016;18.632;2023-08-20T10:35:26;101073.19;;;32.96;63.83
36380;BME280;22411;53.016;18.632;2023-08-20T10:38:06;101065.22;;;33.01;71.13
36380;BME280;22411;53.016;18.632;2023-08-20T10:40:54;101070.44;;;33.08;73.93
36380;BME280;22411;53.016;18.632;2023-08-20T10:43:28;101066.34;;;33.05;77.35
36380;BME280;22411;53.016;18.632;2023-08-20T10:48:39;101073.31;;;32.89;73.19
36380;BME280;22411;53.016;18.632;2023-08-20T10:51:18;101073.94;;;33.08;66.30
36380;BME280;22411;53.016;18.632;2023-08-20T10:56:40;101069.13;;;33.39;66.24
36380;BME280;22411;53.016;18.632;2023-08-20T10:59:08;101072.47;;;33.46;68.97
36380;BME280;22411;53.016;18.632;2023-08-20T11:01:34;101073.00;;;33.60;58.94
36380;BME280;22411;53.016;18.632;2023-08-20T11:04:00;101060.75;;;33.69;61.83
36380;BME280;22411;53.016;18.632;2023-08-20T11:06:33;101062.59;;;33.35;61.59
36380;BME280;22411;53.016;18.632;2023-08-20T11:08:59;101063.44;;;33.07;62.07
36380;BME280;22411;53.016;18.632;2023-08-20T11:11:43;101063.28;;;32.73;62.69
36380;BME280;22411;53.016;18.632;2023-08-20T11:14:13;101066.88;;;32.50;58.30
36380;BME280;22411;53.016;18.632;2023-08-20T11:16:43;101075.41;;;32.12;57.07
36380;BME280;22411;53.016;18.632;2023-08-20T11:19:10;101063.16;;;31.81;63.30
36380;BME280;22411;53.016;18.632;2023-08-20T11:21:37;101050.97;;;31.66;66.02
36380;BME280;22411;53.016;18.632;2023-08-20T11:24:04;101057.50;;;31.59;63.67
36380;BME280;22411;53.016;18.632;2023-08-20T11:26:30;101060.53;;;31.62;68.38
36380;BME280;22411;53.016;18.632;2023-08-20T11:28:56;101057.84;;;31.50;68.79
36380;BME280;22411;53.016;18.632;2023-08-20T11:31:22;101044.88;;;31.47;72.24
36380;BME280;22411;53.016;18.632;2023-08-20T11:33:49;101045.78;;;31.30;75.59
36380;BME280;22411;53.016;18.632;2023-08-20T11:36:15;101048.09;;;31.26;77.61
36380;BME280;22411;53.016;18.632;2023-08-20T11:38:50;101044.69;;;31.19;79.69
36380;BME280;22411;53.016;18.632;2023-08-20T11:41:16;101039.97;;;31.03;81.16
36380;BME280;22411;53.016;18.632;2023-08-20T11:43:42;101047.09;;;31.09;81.77
36380;BME280;22411;53.016;18.632;2023-08-20T11:46:15;101047.06;;;31.27;81.04
36380;BME280;22411;53.016;18.632;2023-08-20T11:51:40;101046.59;;;31.30;81.17
36380;BME280;22411;53.016;18.632;2023-08-20T11:54:08;101042.88;;;31.96;76.71
36380;BME280;22411;53.016;18.632;2023-08-20T11:56:34;101046.69;;;32.47;68.74
36380;BME280;22411;53.016;18.632;2023-08-20T11:59:01;101042.41;;;32.75;67.75
36380;BME280;22411;53.016;18.632;2023-08-20T12:01:33;101043.75;;;33.01;68.22
36380;BME280;22411;53.016;18.632;2023-08-20T12:04:10;101049.63;;;32.74;60.15
36380;BME280;22411;53.016;18.632;2023-08-20T12:06:36;101037.81;;;32.87;61.54
36380;BME280;22411;53.016;18.632;2023-08-20T12:09:21;101039.50;;;33.34;61.24
36380;BME280;22411;53.016;18.632;2023-08-20T12:11:51;101035.19;;;34.00;60.71
36380;BME280;22411;53.016;18.632;2023-08-20T12:14:18;101039.94;;;33.59;58.48
36380;BME280;22411;53.016;18.632;2023-08-20T12:16:44;101039.19;;;33.97;57.93
36380;BME280;22411;53.016;18.632;2023-08-20T12:19:10;101040.00;;;33.81;55.23
36380;BME280;22411;53.016;18.632;2023-08-20T12:21:36;101032.31;;;33.39;59.56
36380;BME280;22411;53.016;18.632;2023-08-20T12:24:02;101037.63;;;33.05;62.66
36380;BME280;22411;53.016;18.632;2023-08-20T12:26:29;101044.53;;;33.30;62.90
36380;BME280;22411;53.016;18.632;2023-08-20T12:28:56;101025.44;;;33.43;62.13
36380;BME280;22411;53.016;18.632;2023-08-20T12:31:22;101025.97;;;32.71;64.68
36380;BME280;22411;53.016;18.632;2023-08-20T12:33:48;101028.03;;;32.81;65.90
36380;BME280;22411;53.016;18.632;2023-08-20T12:36:13;101022.78;;;32.74;67.13
36380;BME280;22411;53.016;18.632;2023-08-20T12:38:39;101027.22;;;32.81;66.85
36380;BME280;22411;53.016;18.632;2023-08-20T12:41:06;101025.69;;;32.85;66.48
36380;BME280;22411;53.016;18.632;2023-08-20T12:43:32;101021.59;;;32.94;66.04
36380;BME280;22411;53.016;18.632;2023-08-20T12:45:58;101014.69;;;33.43;65.10